Time;durP1;ratioP1;P1;durP2;ratioP2;P2;SDS_P1;SDS_P2;PMS_P1;PMS_P2;Temp;Humidity;BMP_temperature;BMP_pressure;BME280_temperature;BME280_humidity;BME280_pressure;Samples;Min_cycle;Max_cycle;Signal;HPM_P1;HPM_P2
2023/11/04 06:02:20;;;;;;;13.30;7.13;;;;;;;;;;5301303;23;20498;-71
2023/11/04 06:04:46;;;;;;;14.27;7.23;;;;;;;;;;4974576;28;20495;-70
2023/11/04 06:07:12;;;;;;;16.80;6.63;;;;;;;;;;4974297;28;20416;-70
2023/11/04 06:09:38;;;;;;;9.73;6.70;;;;;;;;;;4974364;28;20454;-70
2023/11/04 06:12:05;;;;;;;8.73;6.03;;;;;;;;;;4974260;28;20431;-70
2023/11/04 06:14:31;;;;;;;11.13;6.13;;;;;;;;;;4975356;28;20415;-71
2023/11/04 06:16:57;;;;;;;9.20;5.03;;;;;;;;;;4974374;28;20404;-71
2023/11/04 06:19:23;;;;;;;14.07;5.63;;;;;;;;;;4956972;28;20420;-71
2023/11/04 06:21:49;;;;;;;7.50;5.07;;;;;;;;;;4974318;28;20518;-71
2023/11/04 06:24:16;;;;;;;10.87;4.40;;;;;;;;;;4974724;28;20412;-71
2023/11/04 06:26:42;;;;;;;7.90;5.03;;;;;;;;;;4974179;28;20444;-71
2023/11/04 06:29:08;;;;;;;8.40;5.20;;;;;;;;;;4956645;28;20546;-71
2023/11/04 06:31:34;;;;;;;10.50;5.50;;;;;;;;;;4973796;28;20456;-71
2023/11/04 06:34:00;;;;;;;11.70;4.60;;;;;;;;;;4974129;28;20419;-71
2023/11/04 06:36:31;;;;;;;14.60;5.07;;;;;;;;;;4973868;28;20503;-71
2023/11/04 06:38:57;;;;;;;9.43;5.33;;;;;;;;;;4973799;28;20420;-71
2023/11/04 06:41:24;;;;;;;10.40;4.90;;;;;;;;;;4973640;28;20435;-71
2023/11/04 06:43:52;;;;;;;6.50;4.87;;;;;;;;;;4973946;28;20416;-71
2023/11/04 06:46:18;;;;;;;7.60;4.70;;;;;;;;;;4973846;28;20915;-71
2023/11/04 06:48:44;;;;;;;13.50;5.53;;;;;;;;;;4973771;28;20411;-71
2023/11/04 06:51:10;;;;;;;15.57;6.50;;;;;;;;;;4973079;28;20448;-71
2023/11/04 06:53:36;;;;;;;8.10;5.23;;;;;;;;;;4973927;28;20408;-71
2023/11/04 06:56:03;;;;;;;6.20;4.77;;;;;;;;;;4973516;28;20875;-71
2023/11/04 06:58:32;;;;;;;8.53;4.50;;;;;;;;;;4973659;28;20416;-71
2023/11/04 07:00:58;;;;;;;5.17;4.03;;;;;;;;;;4973123;28;20826;-71
2023/11/04 07:03:24;;;;;;;8.30;4.60;;;;;;;;;;4973900;28;20420;-71
2023/11/04 07:05:50;;;;;;;9.70;4.43;;;;;;;;;;4973954;28;20411;-71
2023/11/04 07:08:16;;;;;;;8.13;5.00;;;;;;;;;;4973840;28;20416;-71
2023/11/04 07:10:42;;;;;;;7.30;4.70;;;;;;;;;;4973573;28;20463;-71
2023/11/04 07:13:11;;;;;;;6.90;4.27;;;;;;;;;;4973527;28;20420;-71
2023/11/04 07:15:39;;;;;;;7.10;4.40;;;;;;;;;;4972801;28;20408;-71
2023/11/04 07:18:07;;;;;;;9.03;4.67;;;;;;;;;;4973550;28;20416;-71
2023/11/04 07:20:34;;;;;;;7.43;4.57;;;;;;;;;;4972871;28;20450;-71
2023/11/04 07:23:00;;;;;;;10.70;5.03;;;;;;;;;;4973195;28;20416;-71
2023/11/04 07:25:26;;;;;;;10.70;4.90;;;;;;;;;;4973153;28;20815;-71
2023/11/04 07:27:52;;;;;;;7.87;4.77;;;;;;;;;;4973677;28;20444;-71
2023/11/04 07:30:19;;;;;;;5.10;3.87;;;;;;;;;;4973102;28;20970;-71
2023/11/04 07:32:45;;;;;;;4.43;3.73;;;;;;;;;;4973134;28;20423;-71
2023/11/04 07:35:11;;;;;;;6.20;4.23;;;;;;;;;;4973068;28;20911;-71
2023/11/04 07:37:37;;;;;;;6.17;4.17;;;;;;;;;;4973172;28;20796;-71
2023/11/04 07:40:05;;;;;;;10.70;4.13;;;;;;;;;;4973186;28;20443;-71
2023/11/04 07:42:32;;;;;;;6.27;3.80;;;;;;;;;;4972831;28;20455;-71
2023/11/04 07:44:57;;;;;;;5.77;4.33;;;;;;;;;;4972985;28;20411;-71
2023/11/04 07:47:23;;;;;;;11.63;5.63;;;;;;;;;;4973017;28;20915;-71
2023/11/04 07:49:50;;;;;;;7.23;3.83;;;;;;;;;;4972967;28;21058;-71
2023/11/04 07:52:16;;;;;;;7.80;3.80;;;;;;;;;;4972275;28;20439;-71
2023/11/04 07:54:42;;;;;;;3.90;2.60;;;;;;;;;;4972808;28;21011;-71
2023/11/04 07:57:09;;;;;;;8.57;3.20;;;;;;;;;;4972884;28;20490;-71
2023/11/04 07:59:36;;;;;;;3.20;2.67;;;;;;;;;;4972844;28;20475;-71
2023/11/04 08:02:02;;;;;;;4.37;2.47;;;;;;;;;;4972125;28;20447;-71
2023/11/04 08:04:28;;;;;;;7.50;3.10;;;;;;;;;;4972310;28;20514;-73
2023/11/04 08:06:54;;;;;;;6.67;3.23;;;;;;;;;;4972524;28;20443;-71
2023/11/04 08:09:20;;;;;;;6.00;3.50;;;;;;;;;;4972511;28;20451;-71
2023/11/04 08:11:46;;;;;;;6.87;3.60;;;;;;;;;;4972550;28;20486;-71
2023/11/04 08:14:12;;;;;;;14.60;3.73;;;;;;;;;;4972490;28;20911;-71
2023/11/04 08:16:41;;;;;;;3.03;2.60;;;;;;;;;;4971338;28;20424;-71
2023/11/04 08:19:07;;;;;;;14.03;2.83;;;;;;;;;;4956941;28;21067;-71
2023/11/04 08:21:33;;;;;;;4.80;2.87;;;;;;;;;;4955357;28;20515;-70
2023/11/04 08:23:59;;;;;;;3.50;2.30;;;;;;;;;;4972153;28;20427;-70
2023/11/04 08:26:26;;;;;;;3.17;2.20;;;;;;;;;;4972512;28;20459;-74
2023/11/04 08:28:52;;;;;;;4.10;2.53;;;;;;;;;;4974762;28;20426;-71
2023/11/04 08:31:18;;;;;;;4.00;2.77;;;;;;;;;;4958618;28;20451;-71
2023/11/04 08:33:45;;;;;;;2.70;2.60;;;;;;;;;;4976197;28;20415;-70
2023/11/04 08:36:11;;;;;;;2.80;2.17;;;;;;;;;;4976068;28;20467;-70
2023/11/04 08:38:37;;;;;;;2.97;2.10;;;;;;;;;;4975263;28;20914;-70
2023/11/04 08:41:03;;;;;;;3.40;2.57;;;;;;;;;;4972002;28;20841;-70
2023/11/04 08:43:29;;;;;;;5.10;2.17;;;;;;;;;;4974214;28;20506;-70
2023/11/04 08:45:55;;;;;;;2.80;2.20;;;;;;;;;;4978332;28;20465;-71
2023/11/04 08:48:21;;;;;;;5.07;2.50;;;;;;;;;;4978754;28;20451;-72
2023/11/04 08:50:47;;;;;;;3.43;2.27;;;;;;;;;;4974884;28;20974;-71
2023/11/04 08:53:13;;;;;;;3.10;1.97;;;;;;;;;;4975320;28;20420;-71
2023/11/04 08:55:39;;;;;;;2.43;1.83;;;;;;;;;;4975082;28;20454;-72
2023/11/04 08:58:05;;;;;;;2.17;2.00;;;;;;;;;;4975476;28;20422;-71
2023/11/04 09:00:31;;;;;;;2.77;2.33;;;;;;;;;;4975272;28;20803;-71
2023/11/04 09:02:57;;;;;;;2.20;1.87;;;;;;;;;;4975339;28;20514;-72
2023/11/04 09:05:23;;;;;;;2.07;1.90;;;;;;;;;;4968281;28;20498;-71
2023/11/04 09:07:50;;;;;;;2.63;2.00;;;;;;;;;;4974922;28;20435;-71
2023/11/04 09:10:16;;;;;;;2.70;1.97;;;;;;;;;;4974728;28;20463;-72
2023/11/04 09:12:42;;;;;;;4.33;2.50;;;;;;;;;;4975307;28;20408;-71
2023/11/04 09:15:10;;;;;;;2.20;1.73;;;;;;;;;;4975362;28;20774;-72
2023/11/04 09:17:37;;;;;;;4.80;1.57;;;;;;;;;;4975331;28;20411;-71
2023/11/04 09:20:03;;;;;;;2.83;1.70;;;;;;;;;;4974896;28;20958;-71
2023/11/04 09:22:29;;;;;;;3.00;1.70;;;;;;;;;;4974590;28;20439;-72
2023/11/04 09:24:55;;;;;;;1.50;1.43;;;;;;;;;;4975180;28;20451;-72
2023/11/04 09:27:21;;;;;;;2.73;2.03;;;;;;;;;;4974739;28;20416;-72
2023/11/04 09:29:47;;;;;;;1.97;1.60;;;;;;;;;;4975160;28;20506;-72
2023/11/04 09:32:13;;;;;;;3.37;1.97;;;;;;;;;;4974374;28;20478;-72
2023/11/04 09:34:39;;;;;;;2.87;2.67;;;;;;;;;;4974614;28;20904;-72
2023/11/04 09:37:05;;;;;;;2.00;1.57;;;;;;;;;;4975272;28;20770;-71
2023/11/04 09:39:31;;;;;;;2.80;2.17;;;;;;;;;;4974477;28;20420;-71
2023/11/04 09:41:58;;;;;;;5.27;1.73;;;;;;;;;;4973948;28;20443;-72
2023/11/04 09:44:24;;;;;;;1.57;1.50;;;;;;;;;;4974637;28;20843;-71
2023/11/04 09:46:51;;;;;;;1.97;1.50;;;;;;;;;;4974268;28;20431;-71
2023/11/04 09:49:18;;;;;;;2.60;1.50;;;;;;;;;;4974782;28;20455;-71
2023/11/04 09:51:44;;;;;;;1.20;1.10;;;;;;;;;;4973816;28;21009;-70
2023/11/04 09:54:13;;;;;;;1.50;1.10;;;;;;;;;;4974804;28;20404;-70
2023/11/04 09:56:39;;;;;;;1.67;1.20;;;;;;;;;;4974381;28;20426;-69
2023/11/04 09:59:07;;;;;;;2.37;1.20;;;;;;;;;;4974096;28;20435;-70
2023/11/04 10:01:33;;;;;;;1.10;1.10;;;;;;;;;;4973963;28;20546;-71
2023/11/04 10:03:59;;;;;;;2.27;1.40;;;;;;;;;;4974128;28;20482;-70
2023/11/04 10:06:26;;;;;;;3.97;1.23;;;;;;;;;;4974389;28;20787;-69
2023/11/04 10:08:52;;;;;;;5.57;1.40;;;;;;;;;;4973745;28;20431;-69
2023/11/04 10:11:18;;;;;;;1.73;1.30;;;;;;;;;;4973582;28;20436;-70
2023/11/04 10:13:44;;;;;;;1.97;1.20;;;;;;;;;;4974342;28;20427;-70
2023/11/04 10:16:12;;;;;;;1.83;0.90;;;;;;;;;;4974120;28;20420;-70
2023/11/04 10:18:38;;;;;;;1.27;1.17;;;;;;;;;;4954824;29;20428;-70
2023/11/04 10:21:05;;;;;;;3.40;1.40;;;;;;;;;;4964500;28;20463;-70
2023/11/04 10:23:31;;;;;;;6.33;1.17;;;;;;;;;;4973933;28;20420;-70
2023/11/04 10:26:04;;;;;;;2.20;1.20;;;;;;;;;;4973541;28;20432;-70
2023/11/04 10:28:30;;;;;;;1.67;1.10;;;;;;;;;;4973767;28;20427;-69
2023/11/04 10:31:02;;;;;;;3.30;1.10;;;;;;;;;;4973503;28;20948;-70
2023/11/04 10:33:31;;;;;;;2.20;1.07;;;;;;;;;;4973738;28;20927;-70
2023/11/04 10:35:57;;;;;;;1.63;1.30;;;;;;;;;;4974040;28;20498;-67
2023/11/04 10:38:24;;;;;;;1.27;1.20;;;;;;;;;;4972778;28;20452;-68
2023/11/04 10:40:50;;;;;;;1.90;1.40;;;;;;;;;;4972978;28;20459;-68
2023/11/04 10:43:18;;;;;;;7.37;1.27;;;;;;;;;;4972263;28;20907;-69
2023/11/04 10:45:55;;;;;;;1.10;1.00;;;;;;;;;;4973403;28;20460;-69
2023/11/04 10:48:39;;;;;;;1.97;1.20;;;;;;;;;;4974021;28;20407;-71
2023/11/04 10:51:17;;;;;;;1.50;1.30;;;;;;;;;;4972430;28;20963;-70
2023/11/04 10:53:51;;;;;;;1.23;1.20;;;;;;;;;;4973164;28;20419;-71
2023/11/04 10:56:41;;;;;;;1.50;1.30;;;;;;;;;;4973273;28;20764;-71
2023/11/04 10:59:26;;;;;;;2.10;1.50;;;;;;;;;;4928854;28;20930;-70
2023/11/04 11:01:54;;;;;;;1.27;1.17;;;;;;;;;;4973191;28;20470;-71
2023/11/04 11:04:20;;;;;;;1.40;1.10;;;;;;;;;;4973744;28;20415;-70
2023/11/04 11:06:46;;;;;;;1.57;1.20;;;;;;;;;;4973548;28;20408;-70
2023/11/04 11:09:13;;;;;;;0.93;0.87;;;;;;;;;;4972912;28;20503;-71
2023/11/04 11:12:11;;;;;;;2.40;1.57;;;;;;;;;;4972954;28;20502;-71
2023/11/04 11:14:37;;;;;;;1.63;1.20;;;;;;;;;;4920296;28;20428;-71
2023/11/04 11:17:05;;;;;;;2.30;1.10;;;;;;;;;;4972875;28;20431;-71
2023/11/04 11:19:33;;;;;;;1.63;1.40;;;;;;;;;;4973117;28;20466;-71
2023/11/04 11:22:02;;;;;;;1.33;1.20;;;;;;;;;;4972711;28;20486;-71
2023/11/04 11:24:29;;;;;;;3.70;1.80;;;;;;;;;;4973198;28;20416;-71
2023/11/04 11:26:59;;;;;;;1.10;1.10;;;;;;;;;;4972898;28;20462;-71
2023/11/04 11:29:25;;;;;;;1.27;1.20;;;;;;;;;;4973059;28;20534;-71
2023/11/04 11:32:03;;;;;;;1.30;1.27;;;;;;;;;;4972877;28;20419;-71
2023/11/04 11:34:29;;;;;;;2.50;1.10;;;;;;;;;;4972883;28;20424;-71
2023/11/04 11:36:55;;;;;;;4.53;1.73;;;;;;;;;;4973018;28;20867;-72
2023/11/04 11:39:22;;;;;;;1.53;1.20;;;;;;;;;;4971727;28;20442;-71
2023/11/04 11:41:48;;;;;;;1.33;1.20;;;;;;;;;;4972693;28;20515;-72
2023/11/04 11:44:14;;;;;;;3.33;1.50;;;;;;;;;;4973213;28;20415;-72
2023/11/04 11:46:42;;;;;;;2.40;1.63;;;;;;;;;;4973061;28;20474;-72
2023/11/04 11:49:08;;;;;;;2.60;1.40;;;;;;;;;;4972815;28;20423;-72
2023/11/04 11:51:36;;;;;;;3.00;1.50;;;;;;;;;;4972461;28;20451;-71
2023/11/04 11:54:02;;;;;;;1.53;1.30;;;;;;;;;;4972761;28;20415;-71
2023/11/04 11:56:32;;;;;;;1.00;0.90;;;;;;;;;;4972876;28;20420;-71
2023/11/04 11:59:05;;;;;;;1.87;1.57;;;;;;;;;;4972922;28;20412;-70
2023/11/04 12:01:31;;;;;;;1.50;1.33;;;;;;;;;;4973485;28;20447;-70
2023/11/04 12:03:59;;;;;;;1.70;0.93;;;;;;;;;;4977233;28;20766;-70
2023/11/04 12:06:26;;;;;;;3.60;1.93;;;;;;;;;;4977026;28;20777;-70
2023/11/04 12:08:55;;;;;;;2.27;1.40;;;;;;;;;;4976546;28;20467;-72
2023/11/04 12:11:21;;;;;;;1.50;1.10;;;;;;;;;;4976202;28;20439;-73
2023/11/04 12:13:47;;;;;;;2.03;1.40;;;;;;;;;;4998406;23;20416;-71
2023/11/04 12:16:13;;;;;;;2.30;1.40;;;;;;;;;;4958950;28;20428;-72
2023/11/04 12:18:39;;;;;;;2.10;1.43;;;;;;;;;;4959554;28;20511;-74
2023/11/04 12:21:09;;;;;;;1.90;1.10;;;;;;;;;;4959053;28;20803;-72
2023/11/04 12:23:35;;;;;;;1.43;1.43;;;;;;;;;;4976720;28;20411;-75
2023/11/04 12:26:01;;;;;;;1.07;1.00;;;;;;;;;;4959342;28;20498;-72
2023/11/04 12:28:27;;;;;;;1.10;1.00;;;;;;;;;;4976264;28;20458;-73
2023/11/04 12:31:01;;;;;;;3.87;1.57;;;;;;;;;;4976600;28;20897;-72
2023/11/04 12:33:27;;;;;;;2.33;1.13;;;;;;;;;;4976353;28;20469;-73
2023/11/04 12:36:00;;;;;;;1.10;1.00;;;;;;;;;;4975943;28;20985;-72
2023/11/04 12:38:26;;;;;;;1.53;1.47;;;;;;;;;;4976280;28;20831;-72
2023/11/04 12:40:53;;;;;;;2.63;1.37;;;;;;;;;;4976175;28;20778;-72
2023/11/04 12:43:21;;;;;;;1.93;1.70;;;;;;;;;;4975982;28;20419;-71
2023/11/04 12:45:47;;;;;;;1.70;1.03;;;;;;;;;;4974891;28;20800;-72
2023/11/04 12:48:15;;;;;;;1.40;1.30;;;;;;;;;;4976040;28;20471;-74
2023/11/04 12:50:41;;;;;;;2.73;1.57;;;;;;;;;;4975624;28;20817;-66
2023/11/04 12:53:08;;;;;;;8.03;1.93;;;;;;;;;;4975380;28;20431;-68
2023/11/04 12:55:34;;;;;;;4.90;1.80;;;;;;;;;;4976015;28;20439;-69
2023/11/04 12:58:00;;;;;;;5.63;1.03;;;;;;;;;;4976329;28;20787;-67
2023/11/04 13:00:26;;;;;;;2.30;1.30;;;;;;;;;;4976195;28;20424;-68
2023/11/04 13:02:52;;;;;;;4.70;0.97;;;;;;;;;;4975712;28;20435;-68
2023/11/04 13:05:18;;;;;;;1.83;1.30;;;;;;;;;;4975812;28;20439;-71
2023/11/04 13:07:45;;;;;;;2.67;1.00;;;;;;;;;;4974539;28;20429;-70
2023/11/04 13:10:11;;;;;;;2.63;0.90;;;;;;;;;;4954920;28;20502;-70
2023/11/04 13:12:37;;;;;;;5.40;1.20;;;;;;;;;;4975318;28;20420;-70
2023/11/04 13:15:03;;;;;;;1.83;1.23;;;;;;;;;;4962579;28;20655;-70
2023/11/04 13:17:29;;;;;;;2.00;1.10;;;;;;;;;;4956326;29;20423;-70
2023/11/04 13:19:55;;;;;;;2.00;1.27;;;;;;;;;;4972806;28;20523;-70
2023/11/04 13:22:21;;;;;;;4.43;1.43;;;;;;;;;;4975368;28;20427;-71
2023/11/04 13:24:47;;;;;;;3.23;1.47;;;;;;;;;;4976251;28;20527;-71
2023/11/04 13:27:13;;;;;;;2.70;1.40;;;;;;;;;;4975707;28;20432;-70
2023/11/04 13:29:39;;;;;;;3.90;1.57;;;;;;;;;;4975005;28;20555;-71
2023/11/04 13:32:05;;;;;;;2.10;1.40;;;;;;;;;;4975378;28;20479;-71
2023/11/04 13:34:31;;;;;;;5.20;1.70;;;;;;;;;;4957960;28;20440;-71
2023/11/04 13:36:58;;;;;;;1.60;1.37;;;;;;;;;;4974993;28;20428;-72
2023/11/04 13:39:25;;;;;;;2.40;1.43;;;;;;;;;;4975320;28;20412;-70
2023/11/04 13:41:51;;;;;;;2.00;1.83;;;;;;;;;;4975000;28;20412;-71
2023/11/04 13:44:18;;;;;;;3.20;1.17;;;;;;;;;;4974902;28;20482;-71
2023/11/04 13:46:45;;;;;;;1.53;1.20;;;;;;;;;;4975322;28;20443;-70
2023/11/04 13:49:12;;;;;;;1.57;1.30;;;;;;;;;;4974820;28;20412;-71
2023/11/04 13:51:39;;;;;;;2.27;1.23;;;;;;;;;;4975235;28;20405;-71
2023/11/04 13:54:05;;;;;;;1.23;1.13;;;;;;;;;;4974817;28;20454;-71
2023/11/04 13:56:32;;;;;;;1.47;1.10;;;;;;;;;;4974727;28;20434;-71
2023/11/04 13:58:58;;;;;;;1.50;1.07;;;;;;;;;;4974712;28;20408;-71
2023/11/04 14:01:24;;;;;;;2.23;1.47;;;;;;;;;;4957120;28;20519;-71
2023/11/04 14:03:51;;;;;;;1.13;0.93;;;;;;;;;;4974608;28;20492;-71
2023/11/04 14:06:17;;;;;;;2.17;1.80;;;;;;;;;;4974519;28;20431;-71
2023/11/04 14:08:43;;;;;;;1.40;1.30;;;;;;;;;;4974543;28;20436;-71
2023/11/04 14:11:10;;;;;;;1.83;1.00;;;;;;;;;;4974205;28;20463;-70
2023/11/04 14:13:36;;;;;;;2.70;1.30;;;;;;;;;;4974500;28;20752;-71
2023/11/04 14:16:02;;;;;;;3.70;1.00;;;;;;;;;;4974431;28;20431;-71
2023/11/04 14:18:28;;;;;;;1.83;1.00;;;;;;;;;;4974675;28;20884;-71
2023/11/04 14:20:54;;;;;;;3.20;1.00;;;;;;;;;;4974378;28;20503;-71
2023/11/04 14:23:20;;;;;;;2.57;1.33;;;;;;;;;;4956350;28;20454;-71
2023/11/04 14:25:46;;;;;;;1.13;1.03;;;;;;;;;;4974034;28;20442;-71
2023/11/04 14:28:14;;;;;;;1.87;1.20;;;;;;;;;;4974234;28;20526;-71
2023/11/04 14:30:41;;;;;;;3.03;1.20;;;;;;;;;;4974069;28;20546;-71
2023/11/04 14:33:07;;;;;;;2.60;1.00;;;;;;;;;;4956508;28;20935;-71
2023/11/04 14:35:37;;;;;;;1.13;0.97;;;;;;;;;;4974019;28;20518;-70
2023/11/04 14:38:03;;;;;;;1.60;1.00;;;;;;;;;;4974228;28;20415;-71
2023/11/04 14:40:29;;;;;;;2.23;1.30;;;;;;;;;;4974044;28;20415;-70
2023/11/04 14:42:55;;;;;;;4.07;1.60;;;;;;;;;;4973670;28;20441;-70
2023/11/04 14:45:21;;;;;;;3.50;1.40;;;;;;;;;;4974139;28;20486;-70
2023/11/04 14:47:47;;;;;;;2.30;1.10;;;;;;;;;;4973981;28;20934;-70
2023/11/04 14:50:13;;;;;;;1.40;1.10;;;;;;;;;;4956394;28;20812;-70
2023/11/04 14:52:39;;;;;;;3.33;1.80;;;;;;;;;;4974090;28;20436;-70
2023/11/04 14:55:06;;;;;;;1.80;1.20;;;;;;;;;;4973767;28;20779;-70
2023/11/04 14:57:32;;;;;;;1.40;1.30;;;;;;;;;;4956717;28;20797;-70
2023/11/04 14:59:58;;;;;;;1.60;1.10;;;;;;;;;;4973871;28;20490;-70
2023/11/04 15:02:24;;;;;;;3.97;1.23;;;;;;;;;;4973479;28;20904;-70
2023/11/04 15:04:50;;;;;;;1.40;1.27;;;;;;;;;;4973685;28;20440;-71
2023/11/04 15:07:16;;;;;;;1.20;1.20;;;;;;;;;;4973165;28;20424;-70
2023/11/04 15:09:42;;;;;;;2.70;1.60;;;;;;;;;;4973557;28;20503;-70
2023/11/04 15:12:09;;;;;;;2.83;1.30;;;;;;;;;;4973120;28;20415;-70
2023/11/04 15:14:37;;;;;;;1.30;1.20;;;;;;;;;;4973197;28;20547;-71
2023/11/04 15:17:03;;;;;;;1.50;1.13;;;;;;;;;;4973543;28;20467;-70
2023/11/04 15:19:29;;;;;;;4.00;1.47;;;;;;;;;;4973040;28;20424;-70
2023/11/04 15:21:56;;;;;;;1.93;1.30;;;;;;;;;;4973078;28;20407;-72
2023/11/04 15:24:22;;;;;;;1.10;1.10;;;;;;;;;;4972872;28;20959;-71
2023/11/04 15:26:48;;;;;;;1.07;1.03;;;;;;;;;;4973346;28;20411;-71
2023/11/04 15:29:14;;;;;;;5.67;1.43;;;;;;;;;;4973375;28;20498;-70
2023/11/04 15:31:40;;;;;;;2.80;1.50;;;;;;;;;;4973069;28;20411;-72
2023/11/04 15:34:10;;;;;;;1.87;1.30;;;;;;;;;;4972976;28;20950;-71
2023/11/04 15:36:36;;;;;;;2.07;1.60;;;;;;;;;;4972647;28;20412;-71
2023/11/04 15:39:02;;;;;;;2.10;1.40;;;;;;;;;;4972895;28;20416;-70
2023/11/04 15:41:28;;;;;;;4.20;1.33;;;;;;;;;;4973258;28;20898;-70
2023/11/04 15:43:54;;;;;;;1.70;1.53;;;;;;;;;;4974292;28;20452;-70
2023/11/04 15:46:20;;;;;;;2.43;1.50;;;;;;;;;;4957860;28;20503;-70
2023/11/04 15:48:46;;;;;;;2.90;1.40;;;;;;;;;;4975158;28;20866;-72
2023/11/04 15:51:12;;;;;;;1.83;1.60;;;;;;;;;;4975049;28;20474;-72
2023/11/04 15:53:38;;;;;;;1.33;1.23;;;;;;;;;;4972657;28;20439;-72
2023/11/04 15:56:04;;;;;;;1.37;1.10;;;;;;;;;;4973071;28;20455;-71
2023/11/04 15:58:30;;;;;;;1.87;1.47;;;;;;;;;;4972819;28;20404;-71
2023/11/04 16:00:56;;;;;;;1.40;1.20;;;;;;;;;;4973325;28;20420;-70
2023/11/04 16:03:22;;;;;;;1.43;1.40;;;;;;;;;;4972544;28;20440;-71
2023/11/04 16:05:48;;;;;;;3.90;1.17;;;;;;;;;;4972533;28;20467;-71
2023/11/04 16:08:14;;;;;;;1.27;1.17;;;;;;;;;;4972555;28;20462;-71
2023/11/04 16:10:40;;;;;;;2.93;1.37;;;;;;;;;;4972499;28;20503;-71
2023/11/04 16:13:06;;;;;;;1.20;1.00;;;;;;;;;;4973912;28;20411;-70
2023/11/04 16:15:33;;;;;;;2.03;1.40;;;;;;;;;;4956954;28;20463;-71
2023/11/04 16:17:59;;;;;;;1.83;1.13;;;;;;;;;;4974423;28;20581;-71
2023/11/04 16:20:25;;;;;;;1.20;1.07;;;;;;;;;;4972729;28;20444;-71
2023/11/04 16:22:54;;;;;;;2.77;1.00;;;;;;;;;;4972406;28;20504;-71
2023/11/04 16:25:20;;;;;;;1.50;1.40;;;;;;;;;;4972652;28;21009;-71
2023/11/04 16:27:46;;;;;;;1.20;1.20;;;;;;;;;;4972570;28;20431;-71
2023/11/04 16:30:12;;;;;;;1.60;1.50;;;;;;;;;;4972368;28;20463;-71
2023/11/04 16:32:38;;;;;;;4.30;1.37;;;;;;;;;;4955125;28;20428;-71
2023/11/04 16:35:05;;;;;;;1.83;1.43;;;;;;;;;;4972376;28;20438;-71
2023/11/04 16:37:31;;;;;;;2.20;1.80;;;;;;;;;;4972907;28;20466;-70
2023/11/04 16:39:59;;;;;;;4.93;2.87;;;;;;;;;;4972549;28;20416;-71
2023/11/04 16:42:25;;;;;;;6.63;3.50;;;;;;;;;;4972189;28;20457;-71
2023/11/04 16:44:51;;;;;;;7.37;3.00;;;;;;;;;;4972594;28;20435;-71
2023/11/04 16:47:18;;;;;;;1.70;1.67;;;;;;;;;;4972431;28;20427;-71
2023/11/04 16:49:44;;;;;;;2.30;1.53;;;;;;;;;;4974337;28;20499;-71
2023/11/04 16:52:10;;;;;;;2.40;1.93;;;;;;;;;;4975966;28;20408;-72
2023/11/04 16:54:36;;;;;;;2.80;2.07;;;;;;;;;;4958472;28;20531;-71
2023/11/04 16:57:04;;;;;;;3.13;2.03;;;;;;;;;;4976011;28;20951;-71
2023/11/04 16:59:30;;;;;;;2.33;1.73;;;;;;;;;;4975683;28;20499;-71
2023/11/04 17:01:57;;;;;;;4.13;1.70;;;;;;;;;;4975567;28;20503;-71
2023/11/04 17:04:23;;;;;;;2.70;1.80;;;;;;;;;;4975121;28;20873;-71
2023/11/04 17:06:49;;;;;;;1.67;1.57;;;;;;;;;;4976119;28;20489;-71
2023/11/04 17:09:16;;;;;;;2.90;1.40;;;;;;;;;;4976657;28;20979;-71
2023/11/04 17:11:42;;;;;;;2.97;1.60;;;;;;;;;;4975705;28;20419;-71
2023/11/04 17:14:08;;;;;;;2.30;1.60;;;;;;;;;;4958358;28;20459;-72
2023/11/04 17:16:34;;;;;;;2.83;1.67;;;;;;;;;;4975264;28;20495;-72
2023/11/04 17:19:00;;;;;;;2.63;1.67;;;;;;;;;;4975558;28;20416;-72
2023/11/04 17:21:26;;;;;;;3.10;2.20;;;;;;;;;;4975294;28;20562;-72
2023/11/04 17:23:52;;;;;;;2.40;1.60;;;;;;;;;;4975250;28;20507;-72
2023/11/04 17:26:18;;;;;;;4.13;2.40;;;;;;;;;;4975252;28;20439;-72
2023/11/04 17:28:44;;;;;;;5.40;2.43;;;;;;;;;;4975300;28;20780;-72
2023/11/04 17:31:10;;;;;;;5.60;3.03;;;;;;;;;;4975225;28;20460;-72
2023/11/04 17:33:36;;;;;;;7.20;3.53;;;;;;;;;;4958130;28;20499;-72
2023/11/04 17:36:03;;;;;;;2.23;1.70;;;;;;;;;;4975017;28;20891;-71
2023/11/04 17:38:31;;;;;;;3.00;1.83;;;;;;;;;;4975064;28;20436;-72
2023/11/04 17:40:57;;;;;;;2.07;1.80;;;;;;;;;;4975229;28;20444;-71
2023/11/04 17:43:24;;;;;;;3.93;2.20;;;;;;;;;;4974756;28;20423;-72
2023/11/04 17:45:50;;;;;;;5.63;2.03;;;;;;;;;;4974654;28;20448;-72
2023/11/04 17:48:16;;;;;;;7.10;3.00;;;;;;;;;;4974975;28;20427;-71
2023/11/04 17:50:42;;;;;;;3.23;1.30;;;;;;;;;;4974842;28;20471;-71
2023/11/04 17:53:08;;;;;;;3.17;2.37;;;;;;;;;;4974719;28;20451;-72
2023/11/04 17:55:34;;;;;;;3.80;2.17;;;;;;;;;;4974547;28;20472;-72
2023/11/04 17:58:00;;;;;;;1.50;1.43;;;;;;;;;;4974899;28;20443;-71
2023/11/04 18:00:27;;;;;;;3.00;1.60;;;;;;;;;;4974570;28;20427;-71
2023/11/04 18:02:53;;;;;;;4.80;2.33;;;;;;;;;;4974432;28;20443;-72
2023/11/04 18:05:19;;;;;;;4.07;2.30;;;;;;;;;;4974873;28;20436;-72
2023/11/04 18:07:45;;;;;;;1.60;1.50;;;;;;;;;;4957362;28;20428;-72
2023/11/04 18:10:12;;;;;;;2.90;1.57;;;;;;;;;;4974634;28;20815;-72
2023/11/04 18:12:39;;;;;;;2.00;1.50;;;;;;;;;;4974450;28;20966;-72
2023/11/04 18:15:05;;;;;;;2.00;1.87;;;;;;;;;;4979798;23;20509;-72
2023/11/04 18:17:31;;;;;;;5.70;3.23;;;;;;;;;;4974678;28;20404;-71
2023/11/04 18:19:57;;;;;;;16.30;6.90;;;;;;;;;;4974515;28;20891;-71
2023/11/04 18:22:23;;;;;;;8.90;3.87;;;;;;;;;;4974369;28;20818;-71
2023/11/04 18:24:49;;;;;;;4.03;3.00;;;;;;;;;;4974258;28;20791;-71
2023/11/04 18:27:15;;;;;;;2.13;1.90;;;;;;;;;;4974619;28;20754;-71
2023/11/04 18:29:41;;;;;;;6.33;1.80;;;;;;;;;;4974019;28;20514;-71
2023/11/04 18:32:07;;;;;;;2.83;2.20;;;;;;;;;;4974205;28;20412;-71
2023/11/04 18:34:33;;;;;;;1.73;1.50;;;;;;;;;;4973996;28;20527;-70
2023/11/04 18:37:01;;;;;;;2.43;1.70;;;;;;;;;;4956453;28;20962;-70
2023/11/04 18:39:28;;;;;;;5.33;2.70;;;;;;;;;;4974159;28;20435;-70
2023/11/04 18:41:56;;;;;;;2.10;1.30;;;;;;;;;;4973522;28;20439;-69
2023/11/04 18:44:23;;;;;;;3.50;1.47;;;;;;;;;;4973903;28;20442;-69
2023/11/04 18:46:49;;;;;;;1.83;1.60;;;;;;;;;;4973968;28;20503;-70
2023/11/04 18:49:15;;;;;;;1.70;1.70;;;;;;;;;;4956672;28;20432;-70
2023/11/04 18:51:41;;;;;;;2.77;1.80;;;;;;;;;;4974344;28;20466;-70
2023/11/04 18:54:07;;;;;;;1.83;1.50;;;;;;;;;;4973776;28;20423;-70
2023/11/04 18:56:33;;;;;;;1.17;1.10;;;;;;;;;;4973705;28;20404;-69
2023/11/04 18:58:59;;;;;;;7.03;1.50;;;;;;;;;;4973441;28;20464;-70
2023/11/04 19:01:25;;;;;;;2.00;1.10;;;;;;;;;;4973480;28;20791;-70
2023/11/04 19:03:51;;;;;;;2.63;1.80;;;;;;;;;;4973669;28;20415;-70
2023/11/04 19:06:19;;;;;;;9.87;2.70;;;;;;;;;;4973341;28;20408;-69
2023/11/04 19:08:45;;;;;;;3.20;2.10;;;;;;;;;;4973315;28;20407;-70
2023/11/04 19:11:11;;;;;;;4.47;2.57;;;;;;;;;;4972399;28;20466;-70
2023/11/04 19:13:37;;;;;;;4.33;2.03;;;;;;;;;;4973165;28;20940;-69
2023/11/04 19:16:03;;;;;;;6.30;2.70;;;;;;;;;;4973040;28;20451;-70
2023/11/04 19:18:29;;;;;;;1.43;1.10;;;;;;;;;;4973176;28;20912;-69
2023/11/04 19:20:55;;;;;;;5.47;2.17;;;;;;;;;;4973373;28;20519;-70
2023/11/04 19:23:21;;;;;;;5.40;2.57;;;;;;;;;;4972888;28;20470;-69
2023/11/04 19:25:47;;;;;;;6.43;2.40;;;;;;;;;;4973150;28;20816;-69
2023/11/04 19:28:13;;;;;;;5.00;2.83;;;;;;;;;;4973267;28;20447;-70
2023/11/04 19:30:40;;;;;;;6.20;2.90;;;;;;;;;;4973022;28;20562;-69
2023/11/04 19:33:06;;;;;;;7.67;1.93;;;;;;;;;;4972709;28;20416;-69
2023/11/04 19:35:32;;;;;;;1.67;1.13;;;;;;;;;;4973009;28;20440;-69
2023/11/04 19:37:58;;;;;;;1.23;1.13;;;;;;;;;;4972861;28;20419;-70
2023/11/04 19:40:24;;;;;;;2.37;1.10;;;;;;;;;;4972816;28;20412;-70
2023/11/04 19:42:51;;;;;;;1.33;1.30;;;;;;;;;;4972907;28;20407;-71
2023/11/04 19:45:21;;;;;;;1.97;1.30;;;;;;;;;;4972945;28;20440;-70
2023/11/04 19:47:47;;;;;;;3.10;1.40;;;;;;;;;;4973240;28;20867;-70
2023/11/04 19:50:15;;;;;;;3.93;1.40;;;;;;;;;;4973067;28;20466;-71
2023/11/04 19:52:41;;;;;;;3.27;1.70;;;;;;;;;;4972954;28;20431;-71
2023/11/04 19:55:07;;;;;;;4.07;2.10;;;;;;;;;;4972846;28;20519;-71
2023/11/04 19:57:33;;;;;;;3.33;2.03;;;;;;;;;;4972954;28;20900;-71
2023/11/04 19:59:59;;;;;;;4.63;2.20;;;;;;;;;;4972706;28;20411;-71
2023/11/04 20:02:26;;;;;;;3.10;2.07;;;;;;;;;;4972593;28;20416;-71
2023/11/04 20:04:52;;;;;;;4.60;2.53;;;;;;;;;;4972730;28;20933;-70
2023/11/04 20:07:18;;;;;;;6.43;2.73;;;;;;;;;;4972604;28;20432;-70
2023/11/04 20:09:44;;;;;;;5.87;2.20;;;;;;;;;;4972602;28;20854;-70
2023/11/04 20:12:10;;;;;;;2.20;1.40;;;;;;;;;;4972626;28;20413;-71
2023/11/04 20:14:41;;;;;;;1.23;1.13;;;;;;;;;;4972392;28;20813;-71
2023/11/04 20:17:07;;;;;;;1.47;0.90;;;;;;;;;;4972934;28;20926;-71
2023/11/04 20:19:33;;;;;;;4.87;1.37;;;;;;;;;;4972508;28;20439;-70
2023/11/04 20:22:00;;;;;;;1.27;1.00;;;;;;;;;;4972411;28;20466;-70
2023/11/04 20:24:26;;;;;;;1.17;1.07;;;;;;;;;;4975844;28;20439;-71
2023/11/04 20:26:52;;;;;;;0.90;0.80;;;;;;;;;;4976469;28;20423;-71
2023/11/04 20:29:18;;;;;;;1.50;1.20;;;;;;;;;;4976328;28;20420;-71
2023/11/04 20:31:48;;;;;;;3.33;1.30;;;;;;;;;;4976060;28;20558;-71
2023/11/04 20:34:13;;;;;;;1.53;1.40;;;;;;;;;;4976327;28;20443;-71
2023/11/04 20:36:39;;;;;;;1.20;0.93;;;;;;;;;;4976362;28;20407;-70
2023/11/04 20:39:05;;;;;;;0.97;0.90;;;;;;;;;;4975796;28;20435;-70
2023/11/04 20:41:31;;;;;;;1.77;1.00;;;;;;;;;;4976034;28;20411;-70